Time;durP1;ratioP1;P1;durP2;ratioP2;P2;SDS_P1;SDS_P2;PMS_P1;PMS_P2;Temp;Humidity;BMP_temperature;BMP_pressure;BME280_temperature;BME280_humidity;BME280_pressure;Samples;Min_cycle;Max_cycle;Signal;HPM_P1;HPM_P2
2022/06/10 00:01:16;;;;;;;8.53;3.10;;;;;;;-145.69;100.00;72373.56;4996062;28;20237;-85
2022/06/10 00:03:42;;;;;;;9.60;3.10;;;;;;;-145.69;100.00;72375.56;4995431;28;20202;-85
2022/06/10 00:06:11;;;;;;;11.07;3.20;;;;;;;-145.69;100.00;72373.56;4995639;28;20197;-86
2022/06/10 00:08:39;;;;;;;14.10;3.33;;;;;;;-145.69;100.00;72375.56;4995347;28;20197;-85
2022/06/10 00:11:07;;;;;;;9.47;3.40;;;;;;;-145.69;100.00;72389.50;4995548;28;20221;-86
2022/06/10 00:13:37;;;;;;;11.00;3.83;;;;;;;-145.69;100.00;72383.53;4995518;28;20223;-86
2022/06/10 00:16:05;;;;;;;7.07;3.40;;;;;;;-145.69;100.00;72385.50;4995246;28;20209;-86
2022/06/10 00:18:34;;;;;;;7.70;3.07;;;;;;;-145.69;100.00;72405.41;4994966;28;20206;-86
2022/06/10 00:21:03;;;;;;;10.30;3.70;;;;;;;-145.69;100.00;72405.41;4995243;28;20232;-86
2022/06/10 00:23:29;;;;;;;11.07;3.77;;;;;;;-145.69;100.00;72409.38;4995026;28;20200;-86
2022/06/10 00:25:56;;;;;;;13.90;3.93;;;;;;;-145.69;100.00;72405.41;4995427;28;20568;-87
2022/06/10 00:28:34;;;;;;;16.13;4.43;;;;;;;-145.69;100.00;72413.38;4995095;28;20212;-86
2022/06/10 00:31:03;;;;;;;10.93;4.03;;;;;;;-145.69;100.00;72415.38;4995185;28;20207;-86
2022/06/10 00:33:37;;;;;;;12.77;4.20;;;;;;;-145.69;100.00;72417.34;4994779;28;20208;-86
2022/06/10 00:36:04;;;;;;;18.57;4.27;;;;;;;-145.69;100.00;72421.34;4994518;28;20292;-85
2022/06/10 00:38:32;;;;;;;16.83;3.73;;;;;;;-145.69;100.00;72421.34;4994806;28;20601;-86
2022/06/10 00:41:00;;;;;;;12.40;4.20;;;;;;;-145.69;100.00;72425.31;4994723;28;20237;-86
2022/06/10 00:43:31;;;;;;;9.80;4.53;;;;;;;-145.69;100.00;72425.31;4994268;28;20206;-86
2022/06/10 00:46:02;;;;;;;17.57;4.30;;;;;;;-145.69;100.00;72421.34;4994510;28;20233;-86
2022/06/10 00:48:41;;;;;;;11.57;4.63;;;;;;;-145.69;100.00;72429.28;4994646;28;20202;-86
2022/06/10 00:51:17;;;;;;;14.73;4.20;;;;;;;-145.69;100.00;72437.25;4994678;28;20205;-86
2022/06/10 00:53:45;;;;;;;10.63;4.03;;;;;;;-145.69;100.00;72441.25;4994914;28;20208;-84
2022/06/10 00:56:22;;;;;;;19.20;4.00;;;;;;;-145.69;100.00;72453.19;4994498;28;20201;-85
2022/06/10 00:58:54;;;;;;;7.83;4.10;;;;;;;-145.69;100.00;72457.16;4994388;28;20205;-86
2022/06/10 01:01:23;;;;;;;10.87;4.27;;;;;;;-145.69;100.00;72461.13;4994443;28;20280;-86
2022/06/10 01:03:55;;;;;;;10.13;4.60;;;;;;;-145.69;100.00;72463.13;4994190;28;20213;-86
2022/06/10 01:06:26;;;;;;;10.53;5.00;;;;;;;-145.69;100.00;72453.19;4991655;28;20747;-86
2022/06/10 01:08:57;;;;;;;14.43;4.60;;;;;;;-145.69;100.00;72457.16;4980232;28;20213;-86
2022/06/10 01:11:57;;;;;;;9.70;4.87;;;;;;;-145.69;100.00;72451.19;4990437;28;20198;-86
2022/06/10 01:14:50;;;;;;;9.43;4.23;;;;;;;-145.69;100.00;72457.16;4994252;28;20202;-86
2022/06/10 01:17:33;;;;;;;14.40;5.13;;;;;;;-145.69;100.00;72455.16;4994331;28;20213;-86
2022/06/10 01:20:25;;;;;;;9.23;4.10;;;;;;;-145.69;100.00;72469.09;4993818;28;20241;-85
2022/06/10 01:23:26;;;;;;;7.37;3.87;;;;;;;-145.69;100.00;72491.00;4987061;28;20201;-86
2022/06/10 01:30:12;;;;;;;12.50;3.83;;;;;;;-145.69;100.00;72508.91;4993573;28;20197;-85
2022/06/10 01:32:54;;;;;;;9.00;4.50;;;;;;;-145.69;100.00;72485.03;4914873;29;20291;-86
2022/06/10 01:35:29;;;;;;;13.93;4.23;;;;;;;-145.69;100.00;72500.94;4974592;28;20723;-86
2022/06/10 01:38:05;;;;;;;13.53;4.43;;;;;;;-145.69;100.00;72506.91;4974630;28;20216;-86
2022/06/10 01:40:39;;;;;;;11.67;4.70;;;;;;;-145.69;100.00;72520.84;4979122;28;20627;-86
2022/06/10 01:43:27;;;;;;;12.77;4.30;;;;;;;-145.69;100.00;72520.84;4993694;28;20201;-85
2022/06/10 01:46:04;;;;;;;10.57;5.10;;;;;;;-145.69;100.00;72512.91;4993644;28;20751;-85
2022/06/10 01:48:40;;;;;;;12.80;5.00;;;;;;;-145.69;100.00;72512.91;4993344;28;20267;-86
2022/06/10 01:51:16;;;;;;;22.97;5.90;;;;;;;-145.69;100.00;72504.94;4993630;28;20361;-86
2022/06/10 01:53:56;;;;;;;12.70;6.07;;;;;;;-145.69;100.00;72512.91;4993728;28;20200;-86
2022/06/10 01:56:34;;;;;;;12.27;4.90;;;;;;;-145.69;100.00;72502.94;4993612;28;20231;-85
2022/06/10 01:59:04;;;;;;;18.83;5.33;;;;;;;-145.69;100.00;72510.91;4992259;28;20205;-85
2022/06/10 02:01:39;;;;;;;12.40;4.83;;;;;;;-145.69;100.00;72532.78;4992785;28;20225;-86
2022/06/10 02:04:17;;;;;;;11.83;4.83;;;;;;;-145.69;100.00;72546.72;4993820;28;20205;-86
2022/06/10 02:06:49;;;;;;;8.50;4.20;;;;;;;-145.69;100.00;72564.66;4993561;28;20208;-86
2022/06/10 02:09:25;;;;;;;17.63;5.63;;;;;;;-145.69;100.00;72544.75;4993093;28;20197;-86
2022/06/10 02:11:57;;;;;;;12.47;5.27;;;;;;;-145.69;100.00;72532.78;4993319;28;20671;-86
2022/06/10 02:14:31;;;;;;;13.00;4.97;;;;;;;-145.69;100.00;72550.72;4993372;28;20264;-85
2022/06/10 02:17:01;;;;;;;10.17;4.70;;;;;;;-145.69;100.00;72550.72;4993748;28;20213;-86
2022/06/10 02:19:32;;;;;;;12.00;4.70;;;;;;;-145.69;100.00;72576.59;4993123;28;20679;-86
2022/06/10 02:22:05;;;;;;;10.57;4.40;;;;;;;-145.69;100.00;72576.59;4993007;28;20320;-86
2022/06/10 02:24:41;;;;;;;13.10;5.63;;;;;;;-145.69;100.00;72544.75;4993220;28;20296;-86
2022/06/10 02:27:12;;;;;;;11.63;5.63;;;;;;;-145.69;100.00;72544.75;4993233;28;20212;-86
2022/06/10 02:29:50;;;;;;;19.10;6.33;;;;;;;-145.69;100.00;72538.78;4993017;28;20209;-87
2022/06/10 02:32:17;;;;;;;10.83;5.50;;;;;;;-145.69;100.00;72532.78;4993510;28;20268;-86
2022/06/10 02:34:45;;;;;;;18.23;7.27;;;;;;;-145.69;100.00;72522.84;4992772;28;20206;-85
2022/06/10 02:37:22;;;;;;;19.83;6.30;;;;;;;-145.69;100.00;72536.78;4993586;28;20208;-86
2022/06/10 02:39:57;;;;;;;18.33;5.47;;;;;;;-145.69;100.00;72576.59;4991936;28;20205;-86
2022/06/10 02:42:33;;;;;;;15.27;4.23;;;;;;;-145.69;100.00;72590.53;4992608;28;20224;-86
2022/06/10 02:45:17;;;;;;;9.43;4.77;;;;;;;-145.69;100.00;72594.50;4993231;28;20652;-86
2022/06/10 02:47:52;;;;;;;19.07;4.67;;;;;;;-145.69;100.00;72602.47;4992575;28;20256;-86
2022/06/10 02:50:28;;;;;;;16.50;5.50;;;;;;;-145.69;100.00;72600.47;4993071;28;20267;-85
2022/06/10 02:52:58;;;;;;;15.60;5.57;;;;;;;-145.69;100.00;72610.44;4992920;28;20225;-85
2022/06/10 02:55:30;;;;;;;21.03;5.57;;;;;;;-145.69;100.00;72600.47;4992958;28;20743;-86
2022/06/10 03:01:16;;;;;;;16.07;5.27;;;;;;;-145.69;100.00;72612.41;4992469;28;20232;-86
2022/06/10 03:03:56;;;;;;;11.13;4.27;;;;;;;-145.69;100.00;72624.34;4993318;28;20292;-86
2022/06/10 03:06:37;;;;;;;13.30;5.20;;;;;;;-145.69;100.00;72620.38;4993072;28;20190;-85
2022/06/10 03:09:16;;;;;;;16.07;5.40;;;;;;;-145.69;100.00;72614.41;4989873;28;20206;-86
2022/06/10 03:11:58;;;;;;;18.40;6.43;;;;;;;-145.69;100.00;72592.50;4996477;28;20211;-86
2022/06/10 03:14:51;;;;;;;14.63;6.17;;;;;;;-145.69;100.00;72590.53;4996665;28;20205;-86
2022/06/10 03:17:37;;;;;;;22.77;7.40;;;;;;;-145.69;100.00;72578.56;4996621;28;20275;-86
2022/06/10 03:20:20;;;;;;;21.10;6.90;;;;;;;-145.69;100.00;72582.56;4995734;28;20209;-86
2022/06/10 03:23:09;;;;;;;20.33;7.10;;;;;;;-145.69;100.00;72574.59;4996285;28;20264;-86
2022/06/10 03:25:42;;;;;;;15.97;7.20;;;;;;;-145.69;100.00;72580.56;4996605;28;20293;-86
2022/06/10 03:28:19;;;;;;;19.63;7.03;;;;;;;-145.69;100.00;72580.56;4996104;28;20294;-85
2022/06/10 03:31:00;;;;;;;22.37;7.63;;;;;;;-145.69;100.00;72578.56;4996086;28;20197;-86
2022/06/10 03:33:32;;;;;;;19.57;7.00;;;;;;;-145.69;100.00;72574.59;4996290;28;20243;-85
2022/06/10 03:36:06;;;;;;;16.23;7.10;;;;;;;-145.69;100.00;72576.59;4996025;28;20557;-86
2022/06/10 03:38:44;;;;;;;17.73;6.73;;;;;;;-145.69;100.00;72580.56;4996036;28;20287;-85
2022/06/10 03:41:20;;;;;;;26.20;7.07;;;;;;;-145.69;100.00;72574.59;4996008;28;20229;-86
2022/06/10 03:43:52;;;;;;;30.33;6.87;;;;;;;-145.69;100.00;72568.63;4995739;28;20207;-85
2022/06/10 03:46:38;;;;;;;22.40;7.40;;;;;;;-145.69;100.00;72576.59;4995685;28;20248;-86
2022/06/10 03:49:15;;;;;;;17.30;6.77;;;;;;;-145.69;100.00;72564.66;4995937;28;20209;-85
2022/06/10 03:51:47;;;;;;;12.37;6.83;;;;;;;-145.69;100.00;72564.66;4995896;28;20205;-86
2022/06/10 03:54:27;;;;;;;20.77;6.90;;;;;;;-145.69;100.00;72564.66;4995246;28;20198;-86
2022/06/10 03:56:53;;;;;;;16.97;6.33;;;;;;;-145.69;100.00;72576.59;4996098;28;20567;-85
2022/06/10 03:59:25;;;;;;;14.77;5.77;;;;;;;-145.69;100.00;72572.59;4995876;28;20201;-86
2022/06/10 04:01:54;;;;;;;16.53;6.37;;;;;;;-145.69;100.00;72580.56;4995642;28;20587;-85
2022/06/10 04:04:21;;;;;;;20.53;6.47;;;;;;;-145.69;100.00;72566.63;4994888;28;20537;-86
2022/06/10 04:06:47;;;;;;;16.70;6.53;;;;;;;-145.69;100.00;72568.63;4995953;28;20236;-86
2022/06/10 04:09:19;;;;;;;17.03;6.43;;;;;;;-145.69;100.00;72576.59;4995763;28;20552;-86
2022/06/10 04:11:47;;;;;;;13.00;5.67;;;;;;;-145.69;100.00;72578.56;4995542;28;20220;-85
2022/06/10 04:14:18;;;;;;;19.03;6.03;;;;;;;-145.69;100.00;72580.56;4995408;28;20220;-86
2022/06/10 04:16:47;;;;;;;11.73;5.67;;;;;;;-145.69;100.00;72586.53;4995214;28;20201;-86
2022/06/10 04:19:14;;;;;;;11.70;5.37;;;;;;;-145.69;100.00;72572.59;4994955;28;20241;-86
2022/06/10 04:21:44;;;;;;;18.63;6.53;;;;;;;-145.69;100.00;72568.63;4994256;28;20222;-85
2022/06/10 04:24:23;;;;;;;17.33;6.70;;;;;;;-145.69;100.00;72542.75;4995332;28;20208;-86
2022/06/10 04:26:53;;;;;;;17.27;7.43;;;;;;;-145.69;100.00;72530.81;4995223;28;20259;-86
2022/06/10 04:29:21;;;;;;;25.60;7.50;;;;;;;-145.69;100.00;72528.81;4994630;28;20213;-85
2022/06/10 04:31:48;;;;;;;19.27;6.63;;;;;;;-145.69;100.00;72524.84;4994369;28;20615;-86
2022/06/10 04:34:17;;;;;;;12.23;6.20;;;;;;;-145.69;100.00;72520.84;4995307;28;20624;-86
2022/06/10 04:36:49;;;;;;;21.73;7.20;;;;;;;-145.69;100.00;72512.91;4994877;28;20202;-86
2022/06/10 04:39:38;;;;;;;17.73;7.10;;;;;;;-145.69;100.00;72512.91;4994619;28;20584;-85
2022/06/10 04:42:10;;;;;;;12.83;6.77;;;;;;;-145.69;100.00;72483.03;4993914;28;20318;-85
2022/06/10 04:44:37;;;;;;;16.43;7.10;;;;;;;-145.69;100.00;72473.09;4994771;28;20244;-86
2022/06/10 04:47:06;;;;;;;20.47;7.00;;;;;;;-145.69;100.00;72469.09;4994745;28;20233;-86
2022/06/10 04:49:36;;;;;;;12.67;6.10;;;;;;;-145.69;100.00;72461.13;4994246;28;20268;-86
2022/06/10 04:52:20;;;;;;;15.20;6.17;;;;;;;-145.69;100.00;72455.16;4994508;28;20256;-86
2022/06/10 04:54:49;;;;;;;17.87;5.57;;;;;;;-145.69;100.00;72443.22;4994960;28;20208;-86
2022/06/10 04:57:16;;;;;;;18.33;6.30;;;;;;;-145.69;100.00;72427.31;4994512;28;20202;-85
2022/06/10 04:59:46;;;;;;;16.13;6.77;;;;;;;-145.69;100.00;72417.34;4994411;28;20201;-86
2022/06/10 05:02:18;;;;;;;14.97;6.17;;;;;;;-145.69;100.00;72413.38;4994545;28;20240;-86
2022/06/10 05:04:45;;;;;;;14.47;5.70;;;;;;;-145.69;100.00;72403.41;4994282;28;20213;-86
2022/06/10 05:07:11;;;;;;;16.53;6.53;;;;;;;-145.69;100.00;72397.44;4993875;28;20213;-86
2022/06/10 05:09:38;;;;;;;13.17;6.30;;;;;;;-145.69;100.00;72393.47;4994072;28;20209;-86
2022/06/10 05:12:07;;;;;;;17.77;6.17;;;;;;;-145.69;100.00;72383.53;4994492;28;20296;-86
2022/06/10 05:14:34;;;;;;;14.67;6.37;;;;;;;-145.69;100.00;72381.53;4993550;28;20445;-86
2022/06/10 05:17:03;;;;;;;16.77;5.80;;;;;;;-145.69;100.00;72365.59;4994015;28;20198;-87
2022/06/10 05:19:36;;;;;;;17.03;5.20;;;;;;;-145.69;100.00;72357.66;4994085;28;20209;-87
2022/06/10 05:22:05;;;;;;;9.53;5.17;;;;;;;-145.69;100.00;72353.66;4994362;28;20588;-86
2022/06/10 05:24:34;;;;;;;11.73;5.00;;;;;;;-145.69;100.00;72343.72;4994251;28;20205;-87
2022/06/10 05:27:00;;;;;;;14.70;5.80;;;;;;;-145.69;100.00;72327.78;4993803;28;20209;-86
2022/06/10 05:29:31;;;;;;;11.70;5.03;;;;;;;-145.69;100.00;72309.88;4993111;28;20256;-86
2022/06/10 05:32:00;;;;;;;6.37;4.57;;;;;;;-145.69;100.00;72295.94;4993924;28;20559;-86
2022/06/10 05:34:45;;;;;;;11.10;5.07;;;;;;;-145.69;100.00;72278.03;4993206;28;20229;-87
2022/06/10 05:37:13;;;;;;;10.70;5.00;;;;;;;-145.69;100.00;72244.19;4993989;28;20307;-86
2022/06/10 05:39:39;;;;;;;13.13;5.73;;;;;;;-145.69;100.00;72170.56;4994053;28;20213;-86
2022/06/10 05:42:07;;;;;;;12.25;6.13;;;;;;;-145.69;100.00;72051.16;4992895;28;20484;-87
2022/06/10 05:44:43;;;;;;;10.65;4.63;;;;;;;-145.69;100.00;71925.75;4993774;28;20241;-86
2022/06/10 05:47:13;;;;;;;6.82;2.83;;;;;;;-145.69;100.00;71810.34;4993369;28;20236;-87
2022/06/10 05:49:42;;;;;;;8.43;2.72;;;;;;;-145.69;100.00;71716.81;4993903;28;20209;-86
2022/06/10 05:52:11;;;;;;;7.25;2.17;;;;;;;-145.69;100.00;71637.19;4993111;28;20213;-85
2022/06/10 05:54:38;;;;;;;5.22;1.92;;;;;;;-145.69;100.00;71549.66;4993491;28;20660;-84
2022/06/10 05:57:06;;;;;;;3.20;1.27;;;;;;;-145.69;100.00;71501.88;4993690;28;20209;-85
2022/06/10 05:59:33;;;;;;;5.00;1.50;;;;;;;-145.69;100.00;71478.00;4993198;28;20568;-85
2022/06/10 06:02:01;;;;;;;5.40;1.35;;;;;;;-145.69;100.00;71458.09;4993594;28;20264;-85
2022/06/10 06:04:28;;;;;;;3.05;1.13;;;;;;;-145.69;100.00;71384.47;4993270;28;20664;-85
2022/06/10 06:06:55;;;;;;;2.67;1.00;;;;;;;-145.69;100.00;71322.81;4993771;28;20252;-86
2022/06/10 06:09:22;;;;;;;6.45;1.40;;;;;;;-145.69;100.00;71257.13;4993368;28;20595;-86
2022/06/10 06:11:50;;;;;;;6.55;1.40;;;;;;;-145.69;95.34;71207.38;4993321;28;20208;-86
2022/06/10 06:14:17;;;;;;;4.47;1.20;;;;;;;-145.69;94.47;71159.63;4993376;28;20706;-86
2022/06/10 06:16:46;;;;;;;3.75;1.20;;;;;;;-145.69;85.49;71105.91;4993285;28;20256;-87
2022/06/10 06:19:13;;;;;;;10.45;1.30;;;;;;;-145.69;84.44;71127.81;4993310;28;20197;-87
2022/06/10 06:21:40;;;;;;;6.05;1.30;;;;;;;-145.69;75.95;71237.25;4993219;28;20607;-87
2022/06/10 06:24:07;;;;;;;3.90;1.25;;;;;;;-145.69;88.49;71338.72;4993126;28;20205;-86
2022/06/10 06:26:33;;;;;;;6.80;1.30;;;;;;;-145.69;72.44;71318.81;4992565;28;21012;-86
2022/06/10 06:29:00;;;;;;;5.28;1.02;;;;;;;-145.69;84.31;71416.31;4993245;28;20248;-83
2022/06/10 06:31:26;;;;;;;6.88;1.63;;;;;;;-145.69;84.04;71470.06;4993481;28;20231;-83
2022/06/10 06:33:53;;;;;;;5.40;1.38;;;;;;;-145.69;77.77;71370.56;4993176;28;20608;-83
2022/06/10 06:36:23;;;;;;;5.22;1.20;;;;;;;-145.69;78.53;71394.44;4993182;28;20233;-83
2022/06/10 06:38:50;;;;;;;3.10;0.85;;;;;;;-145.69;75.52;71358.63;4993284;28;20660;-83
2022/06/10 06:41:17;;;;;;;7.85;1.55;;;;;;;-145.69;72.46;71314.84;4993171;28;20580;-83
2022/06/10 06:43:45;;;;;;;7.05;1.48;;;;;;;-145.69;74.11;71416.31;4992565;28;20225;-82
2022/06/10 06:46:12;;;;;;;5.57;1.13;;;;;;;-145.69;75.75;71493.94;4995974;28;20261;-83
2022/06/10 06:48:39;;;;;;;3.95;1.20;;;;;;;-145.69;76.31;71350.66;4997122;28;20217;-85
2022/06/10 06:51:06;;;;;;;4.78;1.30;;;;;;;-145.69;69.85;71402.41;4996940;28;20205;-83
2022/06/10 06:53:33;;;;;;;5.25;1.30;;;;;;;-145.69;76.83;71344.69;4996764;28;20560;-82
2022/06/10 06:56:01;;;;;;;3.20;1.23;;;;;;;-145.69;70.60;71390.47;4996477;28;20213;-83
2022/06/10 06:58:27;;;;;;;5.72;1.27;;;;;;;-145.69;72.12;71513.81;4996788;28;20675;-84
2022/06/10 07:00:54;;;;;;;7.28;1.10;;;;;;;-145.69;72.93;71527.75;4996857;28;20205;-84
2022/06/10 07:03:20;;;;;;;3.80;0.90;;;;;;;-145.69;71.26;71430.25;4996558;28;20699;-87
2022/06/10 07:05:47;;;;;;;6.30;1.38;;;;;;;-145.69;65.17;71398.41;4996794;28;20205;-86
2022/06/10 07:08:14;;;;;;;5.38;1.05;;;;;;;-145.69;67.63;71402.41;4996777;28;20198;-86
2022/06/10 07:10:42;;;;;;;8.93;1.50;;;;;;;-145.69;65.66;71338.72;4996759;28;20201;-86
2022/06/10 07:13:09;;;;;;;6.43;1.73;;;;;;;-145.69;65.83;71354.63;4997029;28;20279;-87
2022/06/10 07:15:37;;;;;;;6.72;1.45;;;;;;;-145.69;66.75;71340.72;4997602;28;20599;-85
2022/06/10 07:18:04;;;;;;;7.53;1.38;;;;;;;-145.69;65.31;71342.69;5003216;28;20220;-86
2022/06/10 07:20:33;;;;;;;12.43;1.83;;;;;;;-145.69;66.95;71328.78;5003540;28;20210;-85
2022/06/10 07:23:01;;;;;;;7.38;1.35;;;;;;;-145.69;65.13;71360.59;5002359;28;20232;-85
2022/06/10 07:25:29;;;;;;;3.60;1.17;;;;;;;-145.69;68.12;71398.41;5002810;28;20617;-84
2022/06/10 07:27:58;;;;;;;6.65;1.10;;;;;;;-145.69;66.71;71454.13;4996771;28;20209;-86
2022/06/10 07:30:28;;;;;;;6.00;1.20;;;;;;;-145.69;67.48;71444.19;4996148;28;20656;-85
2022/06/10 07:32:57;;;;;;;5.63;1.35;;;;;;;-145.69;63.24;71438.22;4996559;28;20205;-87
2022/06/10 07:35:24;;;;;;;8.35;1.85;;;;;;;-145.69;67.76;71499.91;4996601;28;20295;-86
2022/06/10 07:37:51;;;;;;;4.93;1.40;;;;;;;-145.69;65.82;71509.84;4996483;28;20212;-87
2022/06/10 07:43:13;;;;;;;9.90;1.52;;;;;;;-145.69;76.34;71493.94;4960883;28;20228;-89
2022/06/10 07:45:40;;;;;;;7.78;1.40;;;;;;;-145.69;71.51;71454.13;4996216;28;20568;-85
2022/06/10 07:48:08;;;;;;;4.95;1.40;;;;;;;-145.69;79.96;71434.22;4995682;28;20206;-88
2022/06/10 07:50:34;;;;;;;4.53;1.33;;;;;;;-145.69;75.28;71428.25;4995480;28;20581;-88
2022/06/10 07:53:01;;;;;;;5.72;1.50;;;;;;;-145.69;73.37;71414.34;4996465;28;20248;-88
2022/06/10 07:55:27;;;;;;;4.25;1.10;;;;;;;-145.69;75.05;71450.16;4996286;28;20224;-87
2022/06/10 07:57:54;;;;;;;10.00;1.38;;;;;;;-145.69;75.37;71485.97;4995109;28;20201;-87
2022/06/10 08:00:25;;;;;;;6.78;1.45;;;;;;;-145.69;74.26;71501.88;4995625;28;20208;-86
2022/06/10 08:02:51;;;;;;;7.15;1.42;;;;;;;-145.69;74.61;71525.78;4995755;28;20329;-89
2022/06/10 08:05:19;;;;;;;5.57;1.48;;;;;;;-145.69;76.56;71517.81;4996112;28;20202;-89
2022/06/10 08:07:45;;;;;;;8.43;1.67;;;;;;;-145.69;72.81;71497.91;4996084;28;20241;-88
2022/06/10 08:10:17;;;;;;;7.40;1.50;;;;;;;-145.69;71.77;71493.94;4995218;28;20194;-87
2022/06/10 08:12:44;;;;;;;5.03;1.00;;;;;;;-145.69;74.49;71573.53;4996068;28;20205;-88
2022/06/10 08:15:11;;;;;;;5.95;1.65;;;;;;;-145.69;77.08;71581.50;4996065;28;20209;-87
2022/06/10 08:17:40;;;;;;;6.28;1.33;;;;;;;-145.69;74.20;71585.47;4995714;28;20201;-87
2022/06/10 08:20:07;;;;;;;7.07;1.75;;;;;;;-145.69;74.37;71597.41;4995332;28;20683;-85
2022/06/10 08:22:32;;;;;;;5.70;1.60;;;;;;;-145.69;75.78;71601.38;4995543;28;20276;-87
2022/06/10 08:25:00;;;;;;;8.65;1.38;;;;;;;-145.69;74.90;71611.34;4995752;28;20618;-88
2022/06/10 08:27:27;;;;;;;8.38;1.75;;;;;;;-145.69;76.20;71601.38;4995631;28;20687;-89
2022/06/10 08:29:55;;;;;;;12.80;1.40;;;;;;;-145.69;74.51;71591.44;4995780;28;20631;-88
2022/06/10 08:32:21;;;;;;;7.07;1.33;;;;;;;-145.69;72.75;71539.69;4995397;28;20202;-89
2022/06/10 08:34:49;;;;;;;5.47;1.20;;;;;;;-145.69;76.14;71470.06;4996094;28;20208;-87
2022/06/10 08:37:17;;;;;;;6.72;1.40;;;;;;;-145.69;76.78;71400.41;4996147;28;20542;-87
2022/06/10 08:39:43;;;;;;;4.68;1.25;;;;;;;-145.69;70.09;71418.31;4995709;28;20205;-86
2022/06/10 08:42:21;;;;;;;7.30;1.55;;;;;;;-145.69;69.54;71474.03;4995578;28;20264;-87
2022/06/10 08:44:52;;;;;;;6.63;1.63;;;;;;;-145.69;71.67;71450.16;4994360;28;20664;-88
2022/06/10 08:47:51;;;;;;;5.28;1.30;;;;;;;-145.69;66.43;71424.28;4995202;28;20288;-88
2022/06/10 08:50:36;;;;;;;4.55;1.27;;;;;;;-145.69;77.17;71366.56;4962286;28;20201;-87
2022/06/10 08:53:34;;;;;;;20.35;2.35;;;;;;;-145.69;63.89;71316.84;4993935;28;20252;-87
2022/06/10 08:56:06;;;;;;;4.30;1.20;;;;;;;-145.69;59.33;71283.00;4982881;28;20205;-88
2022/06/10 08:58:41;;;;;;;4.68;1.27;;;;;;;-145.69;62.71;71279.03;4995250;28;20201;-88
2022/06/10 09:01:15;;;;;;;5.43;1.40;;;;;;;-145.69;65.47;71300.91;4994603;28;20304;-86
2022/06/10 09:03:45;;;;;;;5.70;1.30;;;;;;;-145.69;63.58;71318.81;4994801;28;20761;-87
2022/06/10 09:06:20;;;;;;;4.22;1.15;;;;;;;-145.69;68.63;71261.13;4995283;28;20201;-87
2022/06/10 09:08:51;;;;;;;7.38;1.33;;;;;;;-145.69;60.13;71241.22;4994363;28;20248;-89
2022/06/10 09:11:27;;;;;;;4.88;1.30;;;;;;;-145.69;58.31;71255.16;4994627;28;20568;-89
2022/06/10 09:14:00;;;;;;;6.18;1.05;;;;;;;-145.69;62.46;71171.56;4994799;28;20209;-88
2022/06/10 09:16:32;;;;;;;5.00;1.48;;;;;;;-145.69;60.99;71149.69;4994719;28;20549;-85
2022/06/10 09:19:08;;;;;;;6.28;1.10;;;;;;;-145.69;56.40;71129.78;4994419;28;20205;-89
2022/06/10 09:21:46;;;;;;;8.40;1.40;;;;;;;-145.69;58.53;71211.38;4994487;28;20205;-88
2022/06/10 09:24:21;;;;;;;6.05;1.15;;;;;;;-145.69;59.74;71209.38;4994519;28;20237;-87
2022/06/10 09:26:53;;;;;;;6.90;1.40;;;;;;;-145.69;57.78;71237.25;4994644;28;20204;-83
2022/06/10 09:29:20;;;;;;;6.70;1.23;;;;;;;-145.69;62.21;71322.81;4994530;28;20276;-88
2022/06/10 09:31:57;;;;;;;8.80;1.40;;;;;;;-145.69;61.81;71308.88;4994516;28;20201;-87
2022/06/10 09:34:36;;;;;;;7.10;1.23;;;;;;;-145.69;63.74;71279.03;4994969;28;20201;-87
2022/06/10 09:37:13;;;;;;;6.70;1.48;;;;;;;-145.69;57.91;71243.22;4994025;28;20198;-90
2022/06/10 09:42:51;;;;;;;5.05;1.10;;;;;;;-145.69;54.08;71105.91;4993682;28;20839;-89
2022/06/10 09:45:23;;;;;;;6.05;1.40;;;;;;;-145.69;52.83;71111.88;4993793;28;20197;-84
2022/06/10 09:48:04;;;;;;;7.10;1.17;;;;;;;-145.69;57.86;71064.13;4994020;28;20287;-85
2022/06/10 09:50:35;;;;;;;5.68;1.38;;;;;;;-145.69;54.53;71088.00;4993461;28;20239;-83
2022/06/10 09:53:32;;;;;;;5.53;1.20;;;;;;;-145.69;53.82;71097.97;4993755;28;20244;-88
2022/06/10 09:56:16;;;;;;;4.05;1.02;;;;;;;-145.69;53.36;71092.00;4984004;28;20216;-88
2022/06/10 09:59:03;;;;;;;8.05;1.10;;;;;;;-145.69;50.96;71048.22;4993685;28;20205;-88
2022/06/10 10:01:37;;;;;;;6.65;1.88;;;;;;;-145.69;55.43;71072.09;4993769;28;20682;-89
2022/06/10 10:04:33;;;;;;;4.93;1.38;;;;;;;-145.69;55.09;71080.06;4993889;28;20220;-87
2022/06/10 10:07:07;;;;;;;4.10;0.93;;;;;;;-145.69;49.77;71095.97;4993862;28;20241;-87
2022/06/10 10:09:44;;;;;;;3.80;1.02;;;;;;;-145.69;50.39;71090.00;4994188;28;20205;-88
2022/06/10 10:12:20;;;;;;;6.35;0.90;;;;;;;-145.69;60.78;71097.97;4996573;28;20296;-88
2022/06/10 10:14:57;;;;;;;4.93;1.00;;;;;;;-145.69;58.10;71052.19;4993095;28;20708;-85
2022/06/10 10:17:41;;;;;;;4.25;0.95;;;;;;;-145.69;50.58;71014.38;4993225;28;20251;-85
2022/06/10 10:20:17;;;;;;;3.03;1.00;;;;;;;-145.69;50.49;70990.50;4995702;28;20204;-84
2022/06/10 10:23:02;;;;;;;5.00;1.30;;;;;;;-145.69;53.04;70958.69;4997431;28;20448;-85
2022/06/10 10:25:30;;;;;;;3.85;1.13;;;;;;;-145.69;52.40;71147.69;4997306;28;20201;-85
2022/06/10 10:27:58;;;;;;;5.38;1.17;;;;;;;-145.69;54.41;71215.34;4997419;28;20201;-85
2022/06/10 10:30:32;;;;;;;3.05;1.20;;;;;;;-145.69;55.45;71175.56;4997420;28;20660;-84
2022/06/10 10:33:02;;;;;;;5.88;1.15;;;;;;;-145.69;54.60;71171.56;4997398;28;20599;-84
2022/06/10 10:35:33;;;;;;;2.95;1.05;;;;;;;-145.69;54.56;71165.59;4997140;28;20201;-82
2022/06/10 10:38:02;;;;;;;5.88;1.55;;;;;;;-145.69;51.66;71175.56;4997230;28;20209;-82
2022/06/10 10:40:39;;;;;;;5.40;1.23;;;;;;;-145.69;50.04;71099.94;4996721;28;20205;-84
2022/06/10 10:43:12;;;;;;;5.95;1.30;;;;;;;-145.69;52.34;71123.81;4997451;28;20228;-84
2022/06/10 10:45:40;;;;;;;4.75;1.20;;;;;;;-145.69;57.36;71111.88;4996532;28;20205;-83
2022/06/10 10:48:16;;;;;;;4.28;1.05;;;;;;;-145.69;52.69;71022.34;4997123;28;20211;-85
2022/06/10 10:50:53;;;;;;;5.82;1.00;;;;;;;-145.69;48.16;70976.59;4992066;28;20661;-86
2022/06/10 10:53:25;;;;;;;7.20;1.40;;;;;;;-145.69;49.13;70972.59;4989718;28;20193;-84
2022/06/10 10:56:01;;;;;;;3.97;0.80;;;;;;;-145.69;46.19;70881.09;4996991;28;20265;-85
2022/06/10 10:58:31;;;;;;;4.20;1.15;;;;;;;-145.69;47.87;70904.97;4997152;28;20208;-87
2022/06/10 11:01:01;;;;;;;5.90;1.10;;;;;;;-145.69;47.09;70944.75;4996844;28;20220;-84
2022/06/10 11:03:29;;;;;;;2.00;0.85;;;;;;;-145.69;51.75;70895.00;4996747;28;20264;-83
2022/06/10 11:05:58;;;;;;;1.38;0.90;;;;;;;-145.69;51.25;70833.34;4996328;28;20201;-85
2022/06/10 11:08:30;;;;;;;4.70;1.33;;;;;;;-145.69;52.28;70855.22;4996589;28;20652;-84
2022/06/10 11:11:14;;;;;;;5.53;0.90;;;;;;;-145.69;50.01;70922.88;4996593;28;20564;-84
2022/06/10 11:13:47;;;;;;;5.18;1.10;;;;;;;-145.69;44.27;70841.28;4996492;28;20209;-83
2022/06/10 11:16:38;;;;;;;3.33;1.00;;;;;;;-145.69;44.46;70885.06;4996129;28;20232;-84
2022/06/10 11:19:38;;;;;;;5.00;0.98;;;;;;;-145.69;44.73;70881.09;4996351;28;20237;-85
2022/06/10 11:22:34;;;;;;;7.68;1.08;;;;;;;-145.69;47.06;70885.06;4996377;28;20213;-83
2022/06/10 11:25:28;;;;;;;5.32;1.15;;;;;;;-145.69;50.21;70920.88;4994731;28;20237;-84
2022/06/10 11:28:22;;;;;;;4.80;0.82;;;;;;;-145.69;45.98;70861.19;4961350;28;20288;-85
2022/06/10 11:30:49;;;;;;;2.65;0.80;;;;;;;-145.69;46.15;70871.13;4989448;28;20213;-84
2022/06/10 11:33:25;;;;;;;5.93;1.30;;;;;;;-145.69;44.07;70861.19;4996284;28;20201;-84
2022/06/10 11:36:02;;;;;;;3.97;1.05;;;;;;;-145.69;51.07;70988.53;4995877;28;20267;-85
2022/06/10 11:38:32;;;;;;;4.35;1.20;;;;;;;-145.69;47.17;70916.91;4996011;28;20272;-84
2022/06/10 11:41:01;;;;;;;2.58;0.77;;;;;;;-145.69;53.67;70833.34;4996097;28;20193;-82
2022/06/10 11:43:34;;;;;;;3.03;1.00;;;;;;;-145.69;45.70;70857.22;4995761;28;20248;-84
2022/06/10 11:46:05;;;;;;;3.20;0.70;;;;;;;-145.69;45.06;70789.56;4995412;28;20280;-84
2022/06/10 11:48:39;;;;;;;3.85;0.85;;;;;;;-145.69;46.94;70739.81;4975738;28;20467;-82